sensor_id;sensor_type;location;lat;lon;timestamp;temperature;humidity
6956;DHT22;50345;51.136;16.886;2023-04-15T00:02:22;10.70;99.90
6956;DHT22;50345;51.136;16.886;2023-04-15T00:04:48;10.70;99.90
6956;DHT22;50345;51.136;16.886;2023-04-15T00:07:13;10.70;99.90
6956;DHT22;50345;51.136;16.886;2023-04-15T00:09:40;10.70;99.90
6956;DHT22;50345;51.136;16.886;2023-04-15T00:12:07;10.70;99.90
6956;DHT22;50345;51.136;16.886;2023-04-15T00:14:33;10.70;99.90
6956;DHT22;50345;51.136;16.886;2023-04-15T00:17:00;10.70;99.90
6956;DHT22;50345;51.136;16.886;2023-04-15T00:19:26;10.70;99.90
6956;DHT22;50345;51.136;16.886;2023-04-15T00:21:51;10.70;99.90
6956;DHT22;50345;51.136;16.886;2023-04-15T00:24:17;10.70;99.90
6956;DHT22;50345;51.136;16.886;2023-04-15T00:26:42;10.70;99.90
6956;DHT22;50345;51.136;16.886;2023-04-15T00:29:08;10.70;99.90
6956;DHT22;50345;51.136;16.886;2023-04-15T00:31:33;10.70;99.90
6956;DHT22;50345;51.136;16.886;2023-04-15T00:33:59;10.80;99.90
6956;DHT22;50345;51.136;16.886;2023-04-15T00:36:25;10.80;99.90
6956;DHT22;50345;51.136;16.886;2023-04-15T00:38:50;10.80;99.90
6956;DHT22;50345;51.136;16.886;2023-04-15T00:41:17;10.80;99.90
6956;DHT22;50345;51.136;16.886;2023-04-15T00:43:44;10.80;99.90
6956;DHT22;50345;51.136;16.886;2023-04-15T00:46:12;10.80;99.90
6956;DHT22;50345;51.136;16.886;2023-04-15T00:48:38;10.80;99.90
6956;DHT22;50345;51.136;16.886;2023-04-15T00:51:05;10.80;99.90
6956;DHT22;50345;51.136;16.886;2023-04-15T00:53:31;10.80;99.90
6956;DHT22;50345;51.136;16.886;2023-04-15T00:55:57;10.80;99.90
6956;DHT22;50345;51.136;16.886;2023-04-15T00:58:23;10.80;99.90
6956;DHT22;50345;51.136;16.886;2023-04-15T01:00:49;10.80;99.90
6956;DHT22;50345;51.136;16.886;2023-04-15T01:03:18;10.80;99.90
6956;DHT22;50345;51.136;16.886;2023-04-15T01:05:45;10.80;99.90
6956;DHT22;50345;51.136;16.886;2023-04-15T01:08:10;10.80;99.90
6956;DHT22;50345;51.136;16.886;2023-04-15T01:10:36;10.80;99.90
6956;DHT22;50345;51.136;16.886;2023-04-15T01:13:03;10.80;99.90
6956;DHT22;50345;51.136;16.886;2023-04-15T01:15:28;10.90;99.90
6956;DHT22;50345;51.136;16.886;2023-04-15T01:17:57;10.90;99.90
6956;DHT22;50345;51.136;16.886;2023-04-15T01:20:23;10.90;99.90
6956;DHT22;50345;51.136;16.886;2023-04-15T01:22:49;10.90;99.90
6956;DHT22;50345;51.136;16.886;2023-04-15T01:25:24;10.90;99.90
6956;DHT22;50345;51.136;16.886;2023-04-15T01:27:50;10.90;99.90
6956;DHT22;50345;51.136;16.886;2023-04-15T01:30:16;10.90;99.90
6956;DHT22;50345;51.136;16.886;2023-04-15T01:32:41;10.90;99.90
6956;DHT22;50345;51.136;16.886;2023-04-15T01:35:07;10.90;99.90
6956;DHT22;50345;51.136;16.886;2023-04-15T01:37:33;10.90;99.90
6956;DHT22;50345;51.136;16.886;2023-04-15T01:39:59;10.90;99.90
6956;DHT22;50345;51.136;16.886;2023-04-15T01:42:25;10.80;99.90
6956;DHT22;50345;51.136;16.886;2023-04-15T01:44:52;10.90;99.90
6956;DHT22;50345;51.136;16.886;2023-04-15T01:47:18;10.90;99.90
6956;DHT22;50345;51.136;16.886;2023-04-15T01:49:43;10.90;99.90
6956;DHT22;50345;51.136;16.886;2023-04-15T01:52:09;10.90;99.90
6956;DHT22;50345;51.136;16.886;2023-04-15T01:54:34;10.90;99.90
6956;DHT22;50345;51.136;16.886;2023-04-15T01:57:00;10.90;99.90
6956;DHT22;50345;51.136;16.886;2023-04-15T01:59:26;10.90;99.90
6956;DHT22;50345;51.136;16.886;2023-04-15T02:01:52;10.90;99.90
6956;DHT22;50345;51.136;16.886;2023-04-15T02:04:17;10.90;99.90
6956;DHT22;50345;51.136;16.886;2023-04-15T02:06:43;10.90;99.90
6956;DHT22;50345;51.136;16.886;2023-04-15T02:09:09;10.90;99.90
6956;DHT22;50345;51.136;16.886;2023-04-15T02:11:35;10.90;99.90
6956;DHT22;50345;51.136;16.886;2023-04-15T02:14:02;10.90;99.90
6956;DHT22;50345;51.136;16.886;2023-04-15T02:16:30;10.90;99.90
6956;DHT22;50345;51.136;16.886;2023-04-15T02:18:56;10.90;99.90
6956;DHT22;50345;51.136;16.886;2023-04-15T02:21:22;10.90;99.90
6956;DHT22;50345;51.136;16.886;2023-04-15T02:23:47;10.90;99.90
6956;DHT22;50345;51.136;16.886;2023-04-15T02:26:13;10.90;99.90
6956;DHT22;50345;51.136;16.886;2023-04-15T02:28:39;10.90;99.90
6956;DHT22;50345;51.136;16.886;2023-04-15T02:31:05;10.90;99.90
6956;DHT22;50345;51.136;16.886;2023-04-15T02:33:31;10.90;99.90
6956;DHT22;50345;51.136;16.886;2023-04-15T02:35:57;10.90;99.90
6956;DHT22;50345;51.136;16.886;2023-04-15T02:38:23;10.90;99.90
6956;DHT22;50345;51.136;16.886;2023-04-15T02:40:49;10.80;99.90
6956;DHT22;50345;51.136;16.886;2023-04-15T02:43:15;10.80;99.90
6956;DHT22;50345;51.136;16.886;2023-04-15T02:45:44;10.70;99.90
6956;DHT22;50345;51.136;16.886;2023-04-15T02:48:10;10.70;99.90
6956;DHT22;50345;51.136;16.886;2023-04-15T02:50:36;10.60;99.90
6956;DHT22;50345;51.136;16.886;2023-04-15T02:53:04;10.60;99.90
6956;DHT22;50345;51.136;16.886;2023-04-15T02:55:30;10.50;99.90
6956;DHT22;50345;51.136;16.886;2023-04-15T02:57:56;10.50;99.90
6956;DHT22;50345;51.136;16.886;2023-04-15T03:00:23;10.50;99.90
6956;DHT22;50345;51.136;16.886;2023-04-15T03:02:50;10.40;99.90
6956;DHT22;50345;51.136;16.886;2023-04-15T03:05:21;10.40;99.90
6956;DHT22;50345;51.136;16.886;2023-04-15T03:07:52;10.40;99.90
6956;DHT22;50345;51.136;16.886;2023-04-15T03:10:18;10.30;99.90
6956;DHT22;50345;51.136;16.886;2023-04-15T03:12:44;10.30;99.90
6956;DHT22;50345;51.136;16.886;2023-04-15T03:15:10;10.30;99.90
6956;DHT22;50345;51.136;16.886;2023-04-15T03:17:36;10.30;99.90
6956;DHT22;50345;51.136;16.886;2023-04-15T03:20:02;10.30;99.90
6956;DHT22;50345;51.136;16.886;2023-04-15T03:22:29;10.30;99.90
6956;DHT22;50345;51.136;16.886;2023-04-15T03:24:55;10.30;99.90
6956;DHT22;50345;51.136;16.886;2023-04-15T03:27:21;10.30;99.90
6956;DHT22;50345;51.136;16.886;2023-04-15T03:29:46;10.30;99.90
6956;DHT22;50345;51.136;16.886;2023-04-15T03:32:12;10.30;99.90
6956;DHT22;50345;51.136;16.886;2023-04-15T03:34:40;10.30;99.90
6956;DHT22;50345;51.136;16.886;2023-04-15T03:37:05;10.30;99.90
6956;DHT22;50345;51.136;16.886;2023-04-15T03:39:31;10.20;99.90
6956;DHT22;50345;51.136;16.886;2023-04-15T03:41:57;10.20;99.90
6956;DHT22;50345;51.136;16.886;2023-04-15T03:44:25;10.10;99.90
6956;DHT22;50345;51.136;16.886;2023-04-15T03:46:51;10.10;99.90
6956;DHT22;50345;51.136;16.886;2023-04-15T03:49:16;10.00;99.90
6956;DHT22;50345;51.136;16.886;2023-04-15T03:51:43;10.00;99.90
6956;DHT22;50345;51.136;16.886;2023-04-15T03:54:09;10.00;99.90
6956;DHT22;50345;51.136;16.886;2023-04-15T03:56:35;9.90;99.90
6956;DHT22;50345;51.136;16.886;2023-04-15T03:59:01;9.80;99.90
6956;DHT22;50345;51.136;16.886;2023-04-15T04:01:27;9.70;99.90
6956;DHT22;50345;51.136;16.886;2023-04-15T04:03:52;9.60;99.90
6956;DHT22;50345;51.136;16.886;2023-04-15T04:06:18;9.50;99.90
6956;DHT22;50345;51.136;16.886;2023-04-15T04:08:44;9.50;99.90
6956;DHT22;50345;51.136;16.886;2023-04-15T04:11:09;9.40;99.90
6956;DHT22;50345;51.136;16.886;2023-04-15T04:13:35;9.40;99.90
6956;DHT22;50345;51.136;16.886;2023-04-15T04:16:01;9.30;99.90
6956;DHT22;50345;51.136;16.886;2023-04-15T04:18:27;9.30;99.90
6956;DHT22;50345;51.136;16.886;2023-04-15T04:20:52;9.30;99.90
6956;DHT22;50345;51.136;16.886;2023-04-15T04:23:18;9.20;99.90
6956;DHT22;50345;51.136;16.886;2023-04-15T04:25:43;9.20;99.90
6956;DHT22;50345;51.136;16.886;2023-04-15T04:28:09;9.10;99.90
6956;DHT22;50345;51.136;16.886;2023-04-15T04:30:35;9.10;99.90
6956;DHT22;50345;51.136;16.886;2023-04-15T04:33:01;9.00;99.90
6956;DHT22;50345;51.136;16.886;2023-04-15T04:35:27;9.00;99.90
6956;DHT22;50345;51.136;16.886;2023-04-15T04:37:52;9.00;99.90
6956;DHT22;50345;51.136;16.886;2023-04-15T04:40:18;8.90;99.90
6956;DHT22;50345;51.136;16.886;2023-04-15T04:42:43;8.90;99.90
6956;DHT22;50345;51.136;16.886;2023-04-15T04:45:09;8.90;99.90
6956;DHT22;50345;51.136;16.886;2023-04-15T04:47:35;8.90;99.90
6956;DHT22;50345;51.136;16.886;2023-04-15T04:50:01;8.90;99.90
6956;DHT22;50345;51.136;16.886;2023-04-15T04:52:26;8.90;99.90
6956;DHT22;50345;51.136;16.886;2023-04-15T04:54:52;8.80;99.90
6956;DHT22;50345;51.136;16.886;2023-04-15T04:57:17;8.80;99.90
6956;DHT22;50345;51.136;16.886;2023-04-15T04:59:43;8.80;99.90
6956;DHT22;50345;51.136;16.886;2023-04-15T05:02:08;8.80;99.90
6956;DHT22;50345;51.136;16.886;2023-04-15T05:04:34;8.70;99.90
6956;DHT22;50345;51.136;16.886;2023-04-15T05:07:01;8.70;99.90
6956;DHT22;50345;51.136;16.886;2023-04-15T05:09:26;8.60;99.90
6956;DHT22;50345;51.136;16.886;2023-04-15T05:11:52;8.60;99.90
6956;DHT22;50345;51.136;16.886;2023-04-15T05:14:18;8.60;99.90
6956;DHT22;50345;51.136;16.886;2023-04-15T05:16:43;8.70;99.90
6956;DHT22;50345;51.136;16.886;2023-04-15T05:19:09;8.70;99.90
6956;DHT22;50345;51.136;16.886;2023-04-15T05:21:35;8.80;99.90
6956;DHT22;50345;51.136;16.886;2023-04-15T05:24:00;8.80;99.90
6956;DHT22;50345;51.136;16.886;2023-04-15T05:26:26;8.80;99.90
6956;DHT22;50345;51.136;16.886;2023-04-15T05:28:51;8.90;99.90
6956;DHT22;50345;51.136;16.886;2023-04-15T05:31:17;8.90;99.90
6956;DHT22;50345;51.136;16.886;2023-04-15T05:33:43;8.90;99.90
6956;DHT22;50345;51.136;16.886;2023-04-15T05:36:08;8.90;99.90
6956;DHT22;50345;51.136;16.886;2023-04-15T05:38:34;8.90;99.90
6956;DHT22;50345;51.136;16.886;2023-04-15T05:41:00;8.90;99.90
6956;DHT22;50345;51.136;16.886;2023-04-15T05:43:25;8.80;99.90
6956;DHT22;50345;51.136;16.886;2023-04-15T05:45:51;8.80;99.90
6956;DHT22;50345;51.136;16.886;2023-04-15T05:48:17;8.80;99.90
6956;DHT22;50345;51.136;16.886;2023-04-15T05:50:42;8.80;99.90
6956;DHT22;50345;51.136;16.886;2023-04-15T05:53:08;8.80;99.90
6956;DHT22;50345;51.136;16.886;2023-04-15T05:55:34;8.80;99.90
6956;DHT22;50345;51.136;16.886;2023-04-15T05:57:59;8.80;99.90
6956;DHT22;50345;51.136;16.886;2023-04-15T06:00:25;8.80;99.90
6956;DHT22;50345;51.136;16.886;2023-04-15T06:02:50;8.80;99.90
6956;DHT22;50345;51.136;16.886;2023-04-15T06:05:17;8.90;99.90
6956;DHT22;50345;51.136;16.886;2023-04-15T06:07:42;9.00;99.90
6956;DHT22;50345;51.136;16.886;2023-04-15T06:10:08;9.00;99.90
6956;DHT22;50345;51.136;16.886;2023-04-15T06:12:34;9.10;99.90
6956;DHT22;50345;51.136;16.886;2023-04-15T06:15:00;9.10;99.90
6956;DHT22;50345;51.136;16.886;2023-04-15T06:17:26;9.20;99.90
6956;DHT22;50345;51.136;16.886;2023-04-15T06:19:52;9.20;99.90
6956;DHT22;50345;51.136;16.886;2023-04-15T06:22:23;9.20;99.90
6956;DHT22;50345;51.136;16.886;2023-04-15T06:24:49;9.30;99.90
6956;DHT22;50345;51.136;16.886;2023-04-15T06:27:16;9.40;99.90
6956;DHT22;50345;51.136;16.886;2023-04-15T06:29:42;9.40;99.90
6956;DHT22;50345;51.136;16.886;2023-04-15T06:32:07;9.50;99.90
6956;DHT22;50345;51.136;16.886;2023-04-15T06:34:33;9.60;99.90
6956;DHT22;50345;51.136;16.886;2023-04-15T06:36:58;9.60;99.90
6956;DHT22;50345;51.136;16.886;2023-04-15T06:39:25;9.60;99.90
6956;DHT22;50345;51.136;16.886;2023-04-15T06:41:51;9.60;99.90
6956;DHT22;50345;51.136;16.886;2023-04-15T06:44:17;9.60;99.90
6956;DHT22;50345;51.136;16.886;2023-04-15T06:46:43;9.60;99.90
6956;DHT22;50345;51.136;16.886;2023-04-15T06:49:09;9.60;99.90
6956;DHT22;50345;51.136;16.886;2023-04-15T06:51:36;9.70;99.90
6956;DHT22;50345;51.136;16.886;2023-04-15T06:54:02;9.80;99.90
6956;DHT22;50345;51.136;16.886;2023-04-15T06:56:30;9.70;99.90
6956;DHT22;50345;51.136;16.886;2023-04-15T06:58:56;9.70;99.90
6956;DHT22;50345;51.136;16.886;2023-04-15T07:01:22;9.80;99.90
6956;DHT22;50345;51.136;16.886;2023-04-15T07:03:47;9.90;99.90
6956;DHT22;50345;51.136;16.886;2023-04-15T07:06:13;9.80;99.90
6956;DHT22;50345;51.136;16.886;2023-04-15T07:08:38;9.90;99.90
6956;DHT22;50345;51.136;16.886;2023-04-15T07:11:04;10.00;99.90
6956;DHT22;50345;51.136;16.886;2023-04-15T07:13:31;10.20;99.90
6956;DHT22;50345;51.136;16.886;2023-04-15T07:15:56;10.30;99.90
6956;DHT22;50345;51.136;16.886;2023-04-15T07:18:22;10.30;99.90
6956;DHT22;50345;51.136;16.886;2023-04-15T07:20:48;10.40;99.90
6956;DHT22;50345;51.136;16.886;2023-04-15T07:23:13;10.60;99.90
6956;DHT22;50345;51.136;16.886;2023-04-15T07:25:39;10.80;99.90
6956;DHT22;50345;51.136;16.886;2023-04-15T07:28:04;10.80;99.90
6956;DHT22;50345;51.136;16.886;2023-04-15T07:30:30;10.90;99.90
6956;DHT22;50345;51.136;16.886;2023-04-15T07:32:57;11.00;99.90
6956;DHT22;50345;51.136;16.886;2023-04-15T07:35:23;11.00;99.90
6956;DHT22;50345;51.136;16.886;2023-04-15T07:37:50;10.90;99.90
6956;DHT22;50345;51.136;16.886;2023-04-15T07:40:16;10.90;99.90
6956;DHT22;50345;51.136;16.886;2023-04-15T07:42:42;11.00;99.90
6956;DHT22;50345;51.136;16.886;2023-04-15T07:45:08;11.10;99.90
6956;DHT22;50345;51.136;16.886;2023-04-15T07:47:34;11.20;99.90
6956;DHT22;50345;51.136;16.886;2023-04-15T07:50:00;11.20;99.90
6956;DHT22;50345;51.136;16.886;2023-04-15T07:52:26;11.10;99.90
6956;DHT22;50345;51.136;16.886;2023-04-15T07:54:52;11.00;99.90
6956;DHT22;50345;51.136;16.886;2023-04-15T07:57:18;11.10;99.90
6956;DHT22;50345;51.136;16.886;2023-04-15T07:59:43;11.20;99.90
6956;DHT22;50345;51.136;16.886;2023-04-15T08:02:10;11.30;99.90
6956;DHT22;50345;51.136;16.886;2023-04-15T08:04:38;11.40;99.90
6956;DHT22;50345;51.136;16.886;2023-04-15T08:07:04;11.70;99.90
6956;DHT22;50345;51.136;16.886;2023-04-15T08:09:30;12.10;99.90
6956;DHT22;50345;51.136;16.886;2023-04-15T08:11:56;12.10;99.90
6956;DHT22;50345;51.136;16.886;2023-04-15T08:14:21;12.30;99.90
6956;DHT22;50345;51.136;16.886;2023-04-15T08:16:48;12.50;99.90
6956;DHT22;50345;51.136;16.886;2023-04-15T08:19:14;12.50;99.90
6956;DHT22;50345;51.136;16.886;2023-04-15T08:21:40;12.60;99.90
6956;DHT22;50345;51.136;16.886;2023-04-15T08:24:06;12.60;99.90
6956;DHT22;50345;51.136;16.886;2023-04-15T08:26:32;12.70;99.90
6956;DHT22;50345;51.136;16.886;2023-04-15T08:28:57;12.90;99.90
6956;DHT22;50345;51.136;16.886;2023-04-15T08:31:25;12.90;99.90
6956;DHT22;50345;51.136;16.886;2023-04-15T08:33:51;13.00;99.20
6956;DHT22;50345;51.136;16.886;2023-04-15T08:36:18;13.30;99.30
6956;DHT22;50345;51.136;16.886;2023-04-15T08:38:44;13.80;95.90
6956;DHT22;50345;51.136;16.886;2023-04-15T08:41:19;14.00;96.20
6956;DHT22;50345;51.136;16.886;2023-04-15T08:43:52;14.10;95.40
6956;DHT22;50345;51.136;16.886;2023-04-15T08:46:19;14.20;94.40
6956;DHT22;50345;51.136;16.886;2023-04-15T08:48:46;14.20;91.60
6956;DHT22;50345;51.136;16.886;2023-04-15T08:51:13;14.20;92.80
6956;DHT22;50345;51.136;16.886;2023-04-15T08:53:42;14.30;91.50
6956;DHT22;50345;51.136;16.886;2023-04-15T08:56:08;14.80;91.20
6956;DHT22;50345;51.136;16.886;2023-04-15T08:58:35;15.40;82.90
6956;DHT22;50345;51.136;16.886;2023-04-15T09:01:01;15.50;81.70
6956;DHT22;50345;51.136;16.886;2023-04-15T09:03:27;17.00;71.90
6956;DHT22;50345;51.136;16.886;2023-04-15T09:05:53;18.20;66.80
6956;DHT22;50345;51.136;16.886;2023-04-15T09:08:19;19.20;61.80
6956;DHT22;50345;51.136;16.886;2023-04-15T09:10:44;19.80;55.80
6956;DHT22;50345;51.136;16.886;2023-04-15T09:13:10;19.70;56.30
6956;DHT22;50345;51.136;16.886;2023-04-15T09:15:37;19.10;56.20
6956;DHT22;50345;51.136;16.886;2023-04-15T09:18:03;18.40;58.30
6956;DHT22;50345;51.136;16.886;2023-04-15T09:20:29;18.40;57.60
6956;DHT22;50345;51.136;16.886;2023-04-15T09:22:54;18.50;57.30
6956;DHT22;50345;51.136;16.886;2023-04-15T09:27:50;19.30;54.90
6956;DHT22;50345;51.136;16.886;2023-04-15T09:30:16;19.30;54.50
6956;DHT22;50345;51.136;16.886;2023-04-15T09:32:50;20.80;51.70
6956;DHT22;50345;51.136;16.886;2023-04-15T09:35:16;20.80;52.10
6956;DHT22;50345;51.136;16.886;2023-04-15T09:37:42;21.70;48.60
6956;DHT22;50345;51.136;16.886;2023-04-15T09:40:08;22.40;47.50
6956;DHT22;50345;51.136;16.886;2023-04-15T09:42:34;23.80;45.20
6956;DHT22;50345;51.136;16.886;2023-04-15T09:45:10;24.00;45.30
6956;DHT22;50345;51.136;16.886;2023-04-15T09:47:36;23.50;43.40
6956;DHT22;50345;51.136;16.886;2023-04-15T09:50:02;22.40;44.90
6956;DHT22;50345;51.136;16.886;2023-04-15T09:52:28;24.10;42.20
6956;DHT22;50345;51.136;16.886;2023-04-15T09:54:56;24.20;42.10
6956;DHT22;50345;51.136;16.886;2023-04-15T09:57:22;25.60;40.60
6956;DHT22;50345;51.136;16.886;2023-04-15T09:59:49;25.80;39.80
6956;DHT22;50345;51.136;16.886;2023-04-15T10:02:17;26.50;38.40
6956;DHT22;50345;51.136;16.886;2023-04-15T10:04:43;27.00;38.30
6956;DHT22;50345;51.136;16.886;2023-04-15T10:07:11;27.70;37.00
6956;DHT22;50345;51.136;16.886;2023-04-15T10:09:37;27.70;35.30
6956;DHT22;50345;51.136;16.886;2023-04-15T10:12:04;27.40;35.20
6956;DHT22;50345;51.136;16.886;2023-04-15T10:14:33;27.40;35.70
6956;DHT22;50345;51.136;16.886;2023-04-15T10:17:01;28.10;36.10
6956;DHT22;50345;51.136;16.886;2023-04-15T10:19:30;29.00;34.10
6956;DHT22;50345;51.136;16.886;2023-04-15T10:21:58;29.80;32.70
6956;DHT22;50345;51.136;16.886;2023-04-15T10:24:24;30.90;31.60
6956;DHT22;50345;51.136;16.886;2023-04-15T10:26:51;31.10;31.50
6956;DHT22;50345;51.136;16.886;2023-04-15T10:29:17;31.60;29.70
6956;DHT22;50345;51.136;16.886;2023-04-15T10:31:43;28.10;32.20
6956;DHT22;50345;51.136;16.886;2023-04-15T10:34:09;27.10;32.80
6956;DHT22;50345;51.136;16.886;2023-04-15T10:36:36;26.00;34.60
6956;DHT22;50345;51.136;16.886;2023-04-15T10:39:01;25.00;35.70
6956;DHT22;50345;51.136;16.886;2023-04-15T10:41:28;24.00;37.00
6956;DHT22;50345;51.136;16.886;2023-04-15T10:46:41;22.20;38.80
6956;DHT22;50345;51.136;16.886;2023-04-15T10:49:15;21.70;38.90
6956;DHT22;50345;51.136;16.886;2023-04-15T10:51:42;21.60;40.30
6956;DHT22;50345;51.136;16.886;2023-04-15T10:57:21;22.90;39.00
6956;DHT22;50345;51.136;16.886;2023-04-15T11:05:10;25.50;35.70
6956;DHT22;50345;51.136;16.886;2023-04-15T11:07:49;27.00;32.90
6956;DHT22;50345;51.136;16.886;2023-04-15T11:12:52;26.50;33.80
6956;DHT22;50345;51.136;16.886;2023-04-15T11:15:35;27.30;32.80
6956;DHT22;50345;51.136;16.886;2023-04-15T11:18:08;27.60;32.60
6956;DHT22;50345;51.136;16.886;2023-04-15T11:20:35;27.30;33.10
6956;DHT22;50345;51.136;16.886;2023-04-15T11:23:00;26.50;33.30
6956;DHT22;50345;51.136;16.886;2023-04-15T11:25:27;24.70;35.10
6956;DHT22;50345;51.136;16.886;2023-04-15T11:27:54;24.60;35.70
6956;DHT22;50345;51.136;16.886;2023-04-15T11:30:21;22.90;36.30
6956;DHT22;50345;51.136;16.886;2023-04-15T11:32:48;22.40;37.30
6956;DHT22;50345;51.136;16.886;2023-04-15T11:37:41;24.30;36.60
6956;DHT22;50345;51.136;16.886;2023-04-15T11:40:08;25.50;35.00
6956;DHT22;50345;51.136;16.886;2023-04-15T11:42:33;24.90;34.60
6956;DHT22;50345;51.136;16.886;2023-04-15T11:45:13;24.40;35.50
6956;DHT22;50345;51.136;16.886;2023-04-15T11:47:40;23.70;37.50
6956;DHT22;50345;51.136;16.886;2023-04-15T11:50:18;22.00;37.00
6956;DHT22;50345;51.136;16.886;2023-04-15T11:53:02;21.10;38.90
6956;DHT22;50345;51.136;16.886;2023-04-15T11:55:29;20.60;40.50
6956;DHT22;50345;51.136;16.886;2023-04-15T11:58:14;20.40;41.40
6956;DHT22;50345;51.136;16.886;2023-04-15T12:00:55;20.50;41.80
6956;DHT22;50345;51.136;16.886;2023-04-15T12:03:26;20.70;41.90
6956;DHT22;50345;51.136;16.886;2023-04-15T12:06:18;20.80;41.00
6956;DHT22;50345;51.136;16.886;2023-04-15T12:14:10;20.60;41.40
6956;DHT22;50345;51.136;16.886;2023-04-15T12:16:43;20.20;41.60
6956;DHT22;50345;51.136;16.886;2023-04-15T12:19:14;20.00;41.60
6956;DHT22;50345;51.136;16.886;2023-04-15T12:21:44;19.90;42.40
6956;DHT22;50345;51.136;16.886;2023-04-15T12:24:10;19.70;41.50
6956;DHT22;50345;51.136;16.886;2023-04-15T12:26:51;19.60;42.40
6956;DHT22;50345;51.136;16.886;2023-04-15T12:29:18;19.40;43.00
6956;DHT22;50345;51.136;16.886;2023-04-15T12:32:06;19.20;44.70
6956;DHT22;50345;51.136;16.886;2023-04-15T12:37:04;18.90;44.40
6956;DHT22;50345;51.136;16.886;2023-04-15T12:39:31;18.90;44.50
6956;DHT22;50345;51.136;16.886;2023-04-15T12:41:59;18.90;43.90
6956;DHT22;50345;51.136;16.886;2023-04-15T12:44:25;19.10;44.70
6956;DHT22;50345;51.136;16.886;2023-04-15T12:46:51;19.50;44.40
6956;DHT22;50345;51.136;16.886;2023-04-15T12:49:18;19.70;44.00
6956;DHT22;50345;51.136;16.886;2023-04-15T12:51:50;19.60;43.10
6956;DHT22;50345;51.136;16.886;2023-04-15T12:54:17;19.50;43.40
6956;DHT22;50345;51.136;16.886;2023-04-15T12:56:46;19.40;43.10
6956;DHT22;50345;51.136;16.886;2023-04-15T12:59:13;19.50;43.90
6956;DHT22;50345;51.136;16.886;2023-04-15T13:01:39;19.60;43.70
6956;DHT22;50345;51.136;16.886;2023-04-15T13:04:05;19.80;43.40
6956;DHT22;50345;51.136;16.886;2023-04-15T13:06:31;19.90;43.40
6956;DHT22;50345;51.136;16.886;2023-04-15T13:08:58;19.80;42.60
6956;DHT22;50345;51.136;16.886;2023-04-15T13:11:26;19.60;43.00
6956;DHT22;50345;51.136;16.886;2023-04-15T13:13:51;19.60;43.10
6956;DHT22;50345;51.136;16.886;2023-04-15T13:16:17;19.60;43.90
6956;DHT22;50345;51.136;16.886;2023-04-15T13:18:43;19.40;43.70
6956;DHT22;50345;51.136;16.886;2023-04-15T13:21:11;19.30;44.40
6956;DHT22;50345;51.136;16.886;2023-04-15T13:23:37;19.60;45.00
6956;DHT22;50345;51.136;16.886;2023-04-15T13:26:02;20.00;44.00
6956;DHT22;50345;51.136;16.886;2023-04-15T13:28:28;20.10;43.50
6956;DHT22;50345;51.136;16.886;2023-04-15T13:30:54;19.90;42.90
6956;DHT22;50345;51.136;16.886;2023-04-15T13:33:19;19.80;43.50
6956;DHT22;50345;51.136;16.886;2023-04-15T13:35:45;19.80;43.60
6956;DHT22;50345;51.136;16.886;2023-04-15T13:38:11;19.80;43.20
6956;DHT22;50345;51.136;16.886;2023-04-15T13:40:36;22.20;42.40
6956;DHT22;50345;51.136;16.886;2023-04-15T13:43:02;23.90;39.70
6956;DHT22;50345;51.136;16.886;2023-04-15T13:45:28;25.10;38.80
6956;DHT22;50345;51.136;16.886;2023-04-15T13:47:55;26.40;36.90
6956;DHT22;50345;51.136;16.886;2023-04-15T13:50:20;28.30;35.50
6956;DHT22;50345;51.136;16.886;2023-04-15T13:52:46;28.70;34.90
6956;DHT22;50345;51.136;16.886;2023-04-15T13:55:11;29.60;32.50
6956;DHT22;50345;51.136;16.886;2023-04-15T13:57:37;30.00;32.00
6956;DHT22;50345;51.136;16.886;2023-04-15T14:00:03;30.40;31.50
6956;DHT22;50345;51.136;16.886;2023-04-15T14:02:29;30.50;30.80
6956;DHT22;50345;51.136;16.886;2023-04-15T14:04:55;29.50;30.90
6956;DHT22;50345;51.136;16.886;2023-04-15T14:07:21;28.40;31.60
6956;DHT22;50345;51.136;16.886;2023-04-15T14:09:47;26.80;32.70
6956;DHT22;50345;51.136;16.886;2023-04-15T14:12:12;26.40;34.50
6956;DHT22;50345;51.136;16.886;2023-04-15T14:14:39;27.10;34.30
6956;DHT22;50345;51.136;16.886;2023-04-15T14:17:04;28.20;33.10
6956;DHT22;50345;51.136;16.886;2023-04-15T14:19:31;29.40;32.20
6956;DHT22;50345;51.136;16.886;2023-04-15T14:21:56;31.40;30.90
6956;DHT22;50345;51.136;16.886;2023-04-15T14:26:48;32.50;42.30
6956;DHT22;50345;51.136;16.886;2023-04-15T14:29:14;33.50;28.80
6956;DHT22;50345;51.136;16.886;2023-04-15T14:31:39;33.50;28.90
6956;DHT22;50345;51.136;16.886;2023-04-15T14:36:31;33.90;27.20
6956;DHT22;50345;51.136;16.886;2023-04-15T14:38:57;33.80;28.10
6956;DHT22;50345;51.136;16.886;2023-04-15T14:41:22;33.80;27.50
6956;DHT22;50345;51.136;16.886;2023-04-15T14:43:48;33.50;28.10
6956;DHT22;50345;51.136;16.886;2023-04-15T14:46:14;34.00;28.30
6956;DHT22;50345;51.136;16.886;2023-04-15T14:48:40;34.50;27.10
6956;DHT22;50345;51.136;16.886;2023-04-15T14:51:06;34.90;27.00
6956;DHT22;50345;51.136;16.886;2023-04-15T14:53:31;35.00;27.00
6956;DHT22;50345;51.136;16.886;2023-04-15T14:55:57;34.90;26.70
6956;DHT22;50345;51.136;16.886;2023-04-15T14:58:23;35.00;27.00
6956;DHT22;50345;51.136;16.886;2023-04-15T15:00:49;35.50;26.60
6956;DHT22;50345;51.136;16.886;2023-04-15T15:03:14;35.80;26.20
6956;DHT22;50345;51.136;16.886;2023-04-15T15:05:41;35.40;26.40
6956;DHT22;50345;51.136;16.886;2023-04-15T15:08:07;35.40;26.00
6956;DHT22;50345;51.136;16.886;2023-04-15T15:10:34;35.00;26.30
6956;DHT22;50345;51.136;16.886;2023-04-15T15:13:01;33.70;26.70
6956;DHT22;50345;51.136;16.886;2023-04-15T15:15:26;30.40;28.50
6956;DHT22;50345;51.136;16.886;2023-04-15T15:17:52;30.10;29.00
6956;DHT22;50345;51.136;16.886;2023-04-15T15:20:18;28.20;30.00
6956;DHT22;50345;51.136;16.886;2023-04-15T15:22:44;27.70;31.40
6956;DHT22;50345;51.136;16.886;2023-04-15T15:25:09;25.70;33.40
6956;DHT22;50345;51.136;16.886;2023-04-15T15:27:35;24.70;34.30
6956;DHT22;50345;51.136;16.886;2023-04-15T15:30:02;24.60;35.30
6956;DHT22;50345;51.136;16.886;2023-04-15T15:32:27;24.60;35.40
6956;DHT22;50345;51.136;16.886;2023-04-15T15:34:53;23.80;35.70
6956;DHT22;50345;51.136;16.886;2023-04-15T15:37:19;23.80;36.20
6956;DHT22;50345;51.136;16.886;2023-04-15T15:39:45;24.10;37.10
6956;DHT22;50345;51.136;16.886;2023-04-15T15:42:10;25.20;36.50
6956;DHT22;50345;51.136;16.886;2023-04-15T15:44:36;26.60;34.50
6956;DHT22;50345;51.136;16.886;2023-04-15T15:47:06;27.10;33.30
6956;DHT22;50345;51.136;16.886;2023-04-15T15:49:31;26.80;33.20
6956;DHT22;50345;51.136;16.886;2023-04-15T15:51:57;25.60;33.80
6956;DHT22;50345;51.136;16.886;2023-04-15T15:54:23;24.40;35.30
6956;DHT22;50345;51.136;16.886;2023-04-15T15:56:49;23.50;36.50
6956;DHT22;50345;51.136;16.886;2023-04-15T15:59:15;23.20;37.40
6956;DHT22;50345;51.136;16.886;2023-04-15T16:01:41;23.30;37.60
6956;DHT22;50345;51.136;16.886;2023-04-15T16:04:07;23.10;37.20